sensor_id;sensor_type;location;lat;lon;timestamp;temperature;humidity
1702;DHT22;848;48.354;10.064;2022-09-03T00:00:04;16.20;99.90
1702;DHT22;848;48.354;10.064;2022-09-03T00:02:37;16.30;99.90
1702;DHT22;848;48.354;10.064;2022-09-03T00:05:11;16.30;99.90
1702;DHT22;848;48.354;10.064;2022-09-03T00:07:46;16.30;99.90
1702;DHT22;848;48.354;10.064;2022-09-03T00:10:19;16.30;99.90
1702;DHT22;848;48.354;10.064;2022-09-03T00:12:48;16.40;99.90
1702;DHT22;848;48.354;10.064;2022-09-03T00:15:18;16.40;99.90
1702;DHT22;848;48.354;10.064;2022-09-03T00:17:48;16.30;99.90
1702;DHT22;848;48.354;10.064;2022-09-03T00:20:22;16.20;99.90
1702;DHT22;848;48.354;10.064;2022-09-03T00:22:53;16.00;99.90
1702;DHT22;848;48.354;10.064;2022-09-03T00:25:23;16.00;99.90
1702;DHT22;848;48.354;10.064;2022-09-03T00:27:53;16.00;99.90
1702;DHT22;848;48.354;10.064;2022-09-03T00:30:22;16.00;99.90
1702;DHT22;848;48.354;10.064;2022-09-03T00:32:56;16.00;99.90
1702;DHT22;848;48.354;10.064;2022-09-03T00:35:32;16.00;99.90
1702;DHT22;848;48.354;10.064;2022-09-03T00:38:01;16.00;99.90
1702;DHT22;848;48.354;10.064;2022-09-03T00:40:37;16.00;99.90
1702;DHT22;848;48.354;10.064;2022-09-03T00:43:17;15.90;99.90
1702;DHT22;848;48.354;10.064;2022-09-03T00:45:54;15.90;99.90
1702;DHT22;848;48.354;10.064;2022-09-03T00:48:25;15.90;99.90
1702;DHT22;848;48.354;10.064;2022-09-03T00:51:08;15.90;99.90
1702;DHT22;848;48.354;10.064;2022-09-03T00:53:42;15.80;99.90
1702;DHT22;848;48.354;10.064;2022-09-03T00:56:17;15.80;99.90
1702;DHT22;848;48.354;10.064;2022-09-03T00:59:00;15.70;99.90
1702;DHT22;848;48.354;10.064;2022-09-03T01:01:35;15.70;99.90
1702;DHT22;848;48.354;10.064;2022-09-03T01:04:17;15.60;99.90
1702;DHT22;848;48.354;10.064;2022-09-03T01:06:54;15.50;99.90
1702;DHT22;848;48.354;10.064;2022-09-03T01:09:33;15.50;99.90
1702;DHT22;848;48.354;10.064;2022-09-03T01:12:09;15.50;99.90
1702;DHT22;848;48.354;10.064;2022-09-03T01:14:47;15.50;99.90
1702;DHT22;848;48.354;10.064;2022-09-03T01:17:26;15.50;99.90
1702;DHT22;848;48.354;10.064;2022-09-03T01:25:45;15.60;99.90
1702;DHT22;848;48.354;10.064;2022-09-03T01:28:28;15.60;99.90
1702;DHT22;848;48.354;10.064;2022-09-03T01:31:05;15.60;99.90
1702;DHT22;848;48.354;10.064;2022-09-03T01:33:43;15.50;99.90
1702;DHT22;848;48.354;10.064;2022-09-03T01:36:18;15.50;99.90
1702;DHT22;848;48.354;10.064;2022-09-03T01:38:52;15.60;99.90
1702;DHT22;848;48.354;10.064;2022-09-03T01:41:29;15.60;99.90
1702;DHT22;848;48.354;10.064;2022-09-03T01:44:25;15.60;99.90
1702;DHT22;848;48.354;10.064;2022-09-03T01:47:03;15.50;99.90
1702;DHT22;848;48.354;10.064;2022-09-03T01:49:40;15.60;99.90
1702;DHT22;848;48.354;10.064;2022-09-03T01:52:12;15.60;99.90
1702;DHT22;848;48.354;10.064;2022-09-03T01:54:50;15.50;99.90
1702;DHT22;848;48.354;10.064;2022-09-03T01:57:38;15.50;99.90
1702;DHT22;848;48.354;10.064;2022-09-03T02:00:11;15.50;99.90
1702;DHT22;848;48.354;10.064;2022-09-03T02:02:39;15.40;99.90
1702;DHT22;848;48.354;10.064;2022-09-03T02:05:09;15.40;99.90
1702;DHT22;848;48.354;10.064;2022-09-03T02:07:38;15.40;99.90
1702;DHT22;848;48.354;10.064;2022-09-03T02:10:08;15.30;99.90
1702;DHT22;848;48.354;10.064;2022-09-03T02:12:38;15.30;99.90
1702;DHT22;848;48.354;10.064;2022-09-03T02:15:11;15.20;99.90
1702;DHT22;848;48.354;10.064;2022-09-03T02:17:40;15.20;99.90
1702;DHT22;848;48.354;10.064;2022-09-03T02:20:11;15.20;99.90
1702;DHT22;848;48.354;10.064;2022-09-03T02:22:45;15.20;99.90
1702;DHT22;848;48.354;10.064;2022-09-03T02:25:13;15.10;99.90
1702;DHT22;848;48.354;10.064;2022-09-03T02:27:40;15.10;99.90
1702;DHT22;848;48.354;10.064;2022-09-03T02:30:10;15.10;99.90
1702;DHT22;848;48.354;10.064;2022-09-03T02:32:37;15.00;99.90
1702;DHT22;848;48.354;10.064;2022-09-03T02:35:05;15.00;99.90
1702;DHT22;848;48.354;10.064;2022-09-03T02:37:32;15.00;99.90
1702;DHT22;848;48.354;10.064;2022-09-03T02:39:59;15.00;99.90
1702;DHT22;848;48.354;10.064;2022-09-03T02:42:26;15.10;99.90
1702;DHT22;848;48.354;10.064;2022-09-03T02:44:58;15.00;99.90
1702;DHT22;848;48.354;10.064;2022-09-03T02:47:30;14.90;99.90
1702;DHT22;848;48.354;10.064;2022-09-03T02:49:58;14.90;99.90
1702;DHT22;848;48.354;10.064;2022-09-03T02:52:25;14.90;99.90
1702;DHT22;848;48.354;10.064;2022-09-03T02:54:52;14.90;99.90
1702;DHT22;848;48.354;10.064;2022-09-03T02:57:19;14.90;99.90
1702;DHT22;848;48.354;10.064;2022-09-03T02:59:46;14.90;99.90
1702;DHT22;848;48.354;10.064;2022-09-03T03:02:13;14.90;99.90
1702;DHT22;848;48.354;10.064;2022-09-03T03:04:41;14.90;99.90
1702;DHT22;848;48.354;10.064;2022-09-03T03:07:11;14.80;99.90
1702;DHT22;848;48.354;10.064;2022-09-03T03:09:38;14.90;99.90
1702;DHT22;848;48.354;10.064;2022-09-03T03:12:05;14.90;99.90
1702;DHT22;848;48.354;10.064;2022-09-03T03:14:36;15.00;99.90
1702;DHT22;848;48.354;10.064;2022-09-03T03:17:03;15.00;99.90
1702;DHT22;848;48.354;10.064;2022-09-03T03:19:30;15.00;99.90
1702;DHT22;848;48.354;10.064;2022-09-03T03:21:59;15.00;99.90
1702;DHT22;848;48.354;10.064;2022-09-03T03:24:26;15.00;99.90
1702;DHT22;848;48.354;10.064;2022-09-03T03:26:54;15.00;99.90
1702;DHT22;848;48.354;10.064;2022-09-03T03:29:22;15.00;99.90
1702;DHT22;848;48.354;10.064;2022-09-03T03:31:51;15.10;99.90
1702;DHT22;848;48.354;10.064;2022-09-03T03:34:18;15.10;99.90
1702;DHT22;848;48.354;10.064;2022-09-03T03:36:45;15.10;99.90
1702;DHT22;848;48.354;10.064;2022-09-03T03:39:14;15.20;99.90
1702;DHT22;848;48.354;10.064;2022-09-03T03:41:41;15.20;99.90
1702;DHT22;848;48.354;10.064;2022-09-03T03:44:07;15.20;99.90
1702;DHT22;848;48.354;10.064;2022-09-03T03:46:36;15.20;99.90
1702;DHT22;848;48.354;10.064;2022-09-03T03:49:03;15.20;99.90
1702;DHT22;848;48.354;10.064;2022-09-03T03:51:32;15.20;99.90
1702;DHT22;848;48.354;10.064;2022-09-03T03:53:59;15.20;99.90
1702;DHT22;848;48.354;10.064;2022-09-03T03:56:27;15.20;99.90
1702;DHT22;848;48.354;10.064;2022-09-03T03:58:54;15.20;99.90
1702;DHT22;848;48.354;10.064;2022-09-03T04:01:23;15.10;99.90
1702;DHT22;848;48.354;10.064;2022-09-03T04:03:54;15.10;99.90
1702;DHT22;848;48.354;10.064;2022-09-03T04:06:21;15.10;99.90
1702;DHT22;848;48.354;10.064;2022-09-03T04:08:48;15.10;99.90
1702;DHT22;848;48.354;10.064;2022-09-03T04:11:17;15.10;99.90
1702;DHT22;848;48.354;10.064;2022-09-03T04:13:46;15.00;99.90
1702;DHT22;848;48.354;10.064;2022-09-03T04:16:15;15.00;99.90
1702;DHT22;848;48.354;10.064;2022-09-03T04:18:43;15.00;99.90
1702;DHT22;848;48.354;10.064;2022-09-03T04:21:12;15.10;99.90
1702;DHT22;848;48.354;10.064;2022-09-03T04:23:41;15.00;99.90
1702;DHT22;848;48.354;10.064;2022-09-03T04:26:10;15.00;99.90
1702;DHT22;848;48.354;10.064;2022-09-03T04:28:37;15.00;99.90
1702;DHT22;848;48.354;10.064;2022-09-03T04:31:11;15.00;99.90
1702;DHT22;848;48.354;10.064;2022-09-03T04:33:39;15.00;99.90
1702;DHT22;848;48.354;10.064;2022-09-03T04:36:08;15.00;99.90
1702;DHT22;848;48.354;10.064;2022-09-03T04:38:36;14.90;99.90
1702;DHT22;848;48.354;10.064;2022-09-03T04:41:04;15.00;99.90
1702;DHT22;848;48.354;10.064;2022-09-03T04:43:32;15.00;99.90
1702;DHT22;848;48.354;10.064;2022-09-03T04:46:02;15.00;99.90
1702;DHT22;848;48.354;10.064;2022-09-03T04:48:32;15.00;99.90
1702;DHT22;848;48.354;10.064;2022-09-03T04:51:04;15.10;99.90
1702;DHT22;848;48.354;10.064;2022-09-03T04:53:32;15.10;99.90
1702;DHT22;848;48.354;10.064;2022-09-03T04:55:59;15.20;99.90
1702;DHT22;848;48.354;10.064;2022-09-03T04:58:26;15.20;99.90
1702;DHT22;848;48.354;10.064;2022-09-03T05:00:54;15.20;99.90
1702;DHT22;848;48.354;10.064;2022-09-03T05:03:21;15.20;99.90
1702;DHT22;848;48.354;10.064;2022-09-03T05:05:54;15.20;99.90
1702;DHT22;848;48.354;10.064;2022-09-03T05:08:21;15.20;99.90
1702;DHT22;848;48.354;10.064;2022-09-03T05:10:57;15.20;99.90
1702;DHT22;848;48.354;10.064;2022-09-03T05:13:24;15.10;99.90
1702;DHT22;848;48.354;10.064;2022-09-03T05:15:51;15.00;99.90
1702;DHT22;848;48.354;10.064;2022-09-03T05:18:21;14.90;99.90
1702;DHT22;848;48.354;10.064;2022-09-03T05:20:58;14.80;99.90
1702;DHT22;848;48.354;10.064;2022-09-03T05:23:26;14.80;99.90
1702;DHT22;848;48.354;10.064;2022-09-03T05:25:57;14.60;99.90
1702;DHT22;848;48.354;10.064;2022-09-03T05:28:24;14.50;99.90
1702;DHT22;848;48.354;10.064;2022-09-03T05:30:58;14.50;99.90
1702;DHT22;848;48.354;10.064;2022-09-03T05:33:25;14.50;99.90
1702;DHT22;848;48.354;10.064;2022-09-03T05:35:52;14.60;99.90
1702;DHT22;848;48.354;10.064;2022-09-03T05:38:21;14.60;99.90
1702;DHT22;848;48.354;10.064;2022-09-03T05:40:47;14.70;99.90
1702;DHT22;848;48.354;10.064;2022-09-03T05:43:14;14.70;99.90
1702;DHT22;848;48.354;10.064;2022-09-03T05:45:42;14.80;99.90
1702;DHT22;848;48.354;10.064;2022-09-03T05:48:11;14.90;99.90
1702;DHT22;848;48.354;10.064;2022-09-03T05:50:38;15.00;99.90
1702;DHT22;848;48.354;10.064;2022-09-03T05:53:05;15.00;99.90
1702;DHT22;848;48.354;10.064;2022-09-03T05:55:34;15.00;99.90
1702;DHT22;848;48.354;10.064;2022-09-03T05:58:00;15.10;99.90
1702;DHT22;848;48.354;10.064;2022-09-03T06:00:27;15.10;99.90
1702;DHT22;848;48.354;10.064;2022-09-03T06:02:54;15.20;99.90
1702;DHT22;848;48.354;10.064;2022-09-03T06:05:22;15.20;99.90
1702;DHT22;848;48.354;10.064;2022-09-03T06:07:51;15.20;99.90
1702;DHT22;848;48.354;10.064;2022-09-03T06:10:17;15.20;99.90
1702;DHT22;848;48.354;10.064;2022-09-03T06:12:50;15.10;99.90
1702;DHT22;848;48.354;10.064;2022-09-03T06:15:17;15.10;99.90
1702;DHT22;848;48.354;10.064;2022-09-03T06:17:45;15.10;99.90
1702;DHT22;848;48.354;10.064;2022-09-03T06:20:12;15.20;99.90
1702;DHT22;848;48.354;10.064;2022-09-03T06:22:39;15.30;99.90
1702;DHT22;848;48.354;10.064;2022-09-03T06:25:06;15.40;99.90
1702;DHT22;848;48.354;10.064;2022-09-03T06:27:35;15.50;99.90
1702;DHT22;848;48.354;10.064;2022-09-03T06:30:04;15.50;99.90
1702;DHT22;848;48.354;10.064;2022-09-03T06:32:31;15.70;99.90
1702;DHT22;848;48.354;10.064;2022-09-03T06:34:59;15.80;99.90
1702;DHT22;848;48.354;10.064;2022-09-03T06:37:25;15.90;99.90
1702;DHT22;848;48.354;10.064;2022-09-03T06:39:52;15.90;99.90
1702;DHT22;848;48.354;10.064;2022-09-03T06:42:19;16.00;99.90
1702;DHT22;848;48.354;10.064;2022-09-03T06:44:47;16.10;99.90
1702;DHT22;848;48.354;10.064;2022-09-03T06:47:17;16.20;99.90
1702;DHT22;848;48.354;10.064;2022-09-03T06:49:44;16.30;99.90
1702;DHT22;848;48.354;10.064;2022-09-03T06:52:11;16.40;99.90
1702;DHT22;848;48.354;10.064;2022-09-03T06:54:37;16.40;99.90
1702;DHT22;848;48.354;10.064;2022-09-03T06:57:09;16.50;99.90
1702;DHT22;848;48.354;10.064;2022-09-03T06:59:35;16.70;99.90
1702;DHT22;848;48.354;10.064;2022-09-03T07:02:02;16.70;99.90
1702;DHT22;848;48.354;10.064;2022-09-03T07:04:31;16.80;99.90
1702;DHT22;848;48.354;10.064;2022-09-03T07:06:59;16.80;99.90
1702;DHT22;848;48.354;10.064;2022-09-03T07:09:27;16.80;99.90
1702;DHT22;848;48.354;10.064;2022-09-03T07:11:54;16.80;99.90
1702;DHT22;848;48.354;10.064;2022-09-03T07:14:21;16.90;99.90
1702;DHT22;848;48.354;10.064;2022-09-03T07:16:49;17.30;99.90
1702;DHT22;848;48.354;10.064;2022-09-03T07:19:16;17.30;99.90
1702;DHT22;848;48.354;10.064;2022-09-03T07:21:45;17.40;99.90
1702;DHT22;848;48.354;10.064;2022-09-03T07:24:12;17.50;99.90
1702;DHT22;848;48.354;10.064;2022-09-03T07:26:41;17.60;99.90
1702;DHT22;848;48.354;10.064;2022-09-03T07:29:09;17.50;99.90
1702;DHT22;848;48.354;10.064;2022-09-03T07:31:39;17.50;99.90
1702;DHT22;848;48.354;10.064;2022-09-03T07:34:07;17.50;99.90
1702;DHT22;848;48.354;10.064;2022-09-03T07:36:36;17.50;99.90
1702;DHT22;848;48.354;10.064;2022-09-03T07:39:07;17.60;99.90
1702;DHT22;848;48.354;10.064;2022-09-03T07:41:34;17.80;99.90
1702;DHT22;848;48.354;10.064;2022-09-03T07:44:02;17.90;99.90
1702;DHT22;848;48.354;10.064;2022-09-03T07:46:31;18.00;99.90
1702;DHT22;848;48.354;10.064;2022-09-03T07:48:59;18.10;99.90
1702;DHT22;848;48.354;10.064;2022-09-03T07:51:29;18.10;99.90
1702;DHT22;848;48.354;10.064;2022-09-03T07:53:57;18.00;99.90
1702;DHT22;848;48.354;10.064;2022-09-03T07:56:26;18.10;99.90
1702;DHT22;848;48.354;10.064;2022-09-03T07:58:55;18.20;99.90
1702;DHT22;848;48.354;10.064;2022-09-03T08:01:24;18.30;99.90
1702;DHT22;848;48.354;10.064;2022-09-03T08:03:54;18.40;99.90
1702;DHT22;848;48.354;10.064;2022-09-03T08:06:22;18.50;99.90
1702;DHT22;848;48.354;10.064;2022-09-03T08:08:53;18.60;99.90
1702;DHT22;848;48.354;10.064;2022-09-03T08:11:23;18.80;99.90
1702;DHT22;848;48.354;10.064;2022-09-03T08:13:56;18.90;99.90
1702;DHT22;848;48.354;10.064;2022-09-03T08:16:26;19.00;99.90
1702;DHT22;848;48.354;10.064;2022-09-03T08:18:53;18.90;99.90
1702;DHT22;848;48.354;10.064;2022-09-03T08:21:22;18.70;99.90
1702;DHT22;848;48.354;10.064;2022-09-03T08:23:51;18.80;99.90
1702;DHT22;848;48.354;10.064;2022-09-03T08:26:20;18.90;99.90
1702;DHT22;848;48.354;10.064;2022-09-03T08:28:48;19.00;99.90
1702;DHT22;848;48.354;10.064;2022-09-03T08:31:20;19.20;99.90
1702;DHT22;848;48.354;10.064;2022-09-03T08:33:48;19.20;99.90
1702;DHT22;848;48.354;10.064;2022-09-03T08:36:17;19.30;99.90
1702;DHT22;848;48.354;10.064;2022-09-03T08:38:45;19.50;99.90
1702;DHT22;848;48.354;10.064;2022-09-03T08:41:13;19.40;99.90
1702;DHT22;848;48.354;10.064;2022-09-03T08:44:05;19.40;99.90
1702;DHT22;848;48.354;10.064;2022-09-03T08:46:46;19.20;99.90
1702;DHT22;848;48.354;10.064;2022-09-03T08:49:22;19.10;99.90
1702;DHT22;848;48.354;10.064;2022-09-03T08:51:51;19.00;99.90
1702;DHT22;848;48.354;10.064;2022-09-03T08:54:24;18.90;99.90
1702;DHT22;848;48.354;10.064;2022-09-03T08:56:53;19.00;99.90
1702;DHT22;848;48.354;10.064;2022-09-03T08:59:21;19.20;99.90
1702;DHT22;848;48.354;10.064;2022-09-03T09:01:54;19.50;99.90
1702;DHT22;848;48.354;10.064;2022-09-03T09:04:31;19.60;99.90
1702;DHT22;848;48.354;10.064;2022-09-03T09:07:08;19.70;99.90
1702;DHT22;848;48.354;10.064;2022-09-03T09:09:43;19.80;99.90
1702;DHT22;848;48.354;10.064;2022-09-03T09:12:20;19.90;99.90
1702;DHT22;848;48.354;10.064;2022-09-03T09:15:05;19.90;99.90
1702;DHT22;848;48.354;10.064;2022-09-03T09:17:50;19.80;99.90
1702;DHT22;848;48.354;10.064;2022-09-03T09:20:25;19.70;99.90
1702;DHT22;848;48.354;10.064;2022-09-03T09:22:58;19.70;99.90
1702;DHT22;848;48.354;10.064;2022-09-03T09:25:26;19.90;99.90
1702;DHT22;848;48.354;10.064;2022-09-03T09:27:58;20.10;99.90
1702;DHT22;848;48.354;10.064;2022-09-03T09:30:27;20.30;99.90
1702;DHT22;848;48.354;10.064;2022-09-03T09:32:55;20.50;99.90
1702;DHT22;848;48.354;10.064;2022-09-03T09:35:25;20.60;99.90
1702;DHT22;848;48.354;10.064;2022-09-03T09:37:53;20.60;99.90
1702;DHT22;848;48.354;10.064;2022-09-03T09:40:26;20.60;99.90
1702;DHT22;848;48.354;10.064;2022-09-03T09:43:05;20.70;99.90
1702;DHT22;848;48.354;10.064;2022-09-03T09:45:36;20.90;99.90
1702;DHT22;848;48.354;10.064;2022-09-03T09:48:12;20.90;99.90
1702;DHT22;848;48.354;10.064;2022-09-03T09:50:42;20.90;99.90
1702;DHT22;848;48.354;10.064;2022-09-03T09:53:10;20.90;99.90
1702;DHT22;848;48.354;10.064;2022-09-03T09:55:52;20.90;99.90
1702;DHT22;848;48.354;10.064;2022-09-03T09:58:20;21.00;99.90
1702;DHT22;848;48.354;10.064;2022-09-03T10:00:56;20.90;99.90
1702;DHT22;848;48.354;10.064;2022-09-03T10:03:24;20.90;99.90
1702;DHT22;848;48.354;10.064;2022-09-03T10:06:04;20.80;99.90
1702;DHT22;848;48.354;10.064;2022-09-03T10:08:45;20.90;99.90
1702;DHT22;848;48.354;10.064;2022-09-03T10:11:12;21.10;99.90
1702;DHT22;848;48.354;10.064;2022-09-03T10:13:44;21.20;99.90
1702;DHT22;848;48.354;10.064;2022-09-03T10:16:19;21.20;99.90
1702;DHT22;848;48.354;10.064;2022-09-03T10:18:54;21.20;99.90
1702;DHT22;848;48.354;10.064;2022-09-03T10:21:27;21.30;99.90
1702;DHT22;848;48.354;10.064;2022-09-03T10:24:00;21.40;99.90
1702;DHT22;848;48.354;10.064;2022-09-03T10:26:30;21.40;99.90
1702;DHT22;848;48.354;10.064;2022-09-03T10:28:59;21.50;99.90
1702;DHT22;848;48.354;10.064;2022-09-03T10:31:39;21.60;99.90
1702;DHT22;848;48.354;10.064;2022-09-03T10:34:15;21.70;99.90
1702;DHT22;848;48.354;10.064;2022-09-03T10:36:49;21.80;99.90
1702;DHT22;848;48.354;10.064;2022-09-03T10:39:22;21.90;99.90
1702;DHT22;848;48.354;10.064;2022-09-03T10:42:01;22.10;99.90
1702;DHT22;848;48.354;10.064;2022-09-03T10:44:44;22.10;99.90
1702;DHT22;848;48.354;10.064;2022-09-03T10:47:27;22.10;99.90
1702;DHT22;848;48.354;10.064;2022-09-03T10:50:01;22.00;99.90
1702;DHT22;848;48.354;10.064;2022-09-03T10:52:37;22.00;99.90
1702;DHT22;848;48.354;10.064;2022-09-03T10:55:13;22.20;99.90
1702;DHT22;848;48.354;10.064;2022-09-03T10:57:49;22.30;99.90
1702;DHT22;848;48.354;10.064;2022-09-03T11:00:18;22.50;99.90
1702;DHT22;848;48.354;10.064;2022-09-03T11:06:05;22.40;99.90
1702;DHT22;848;48.354;10.064;2022-09-03T11:08:38;22.30;99.90
1702;DHT22;848;48.354;10.064;2022-09-03T11:11:12;22.20;99.90
1702;DHT22;848;48.354;10.064;2022-09-03T11:13:45;22.40;99.90
1702;DHT22;848;48.354;10.064;2022-09-03T11:16:16;22.50;99.90
1702;DHT22;848;48.354;10.064;2022-09-03T11:18:49;22.60;99.90
1702;DHT22;848;48.354;10.064;2022-09-03T11:21:21;22.60;99.90
1702;DHT22;848;48.354;10.064;2022-09-03T11:23:53;22.50;99.90
1702;DHT22;848;48.354;10.064;2022-09-03T11:26:25;22.70;99.90
1702;DHT22;848;48.354;10.064;2022-09-03T11:28:57;22.60;99.90
1702;DHT22;848;48.354;10.064;2022-09-03T11:31:35;22.50;99.90
1702;DHT22;848;48.354;10.064;2022-09-03T11:34:10;22.40;99.90
1702;DHT22;848;48.354;10.064;2022-09-03T11:36:41;22.40;99.90
1702;DHT22;848;48.354;10.064;2022-09-03T11:39:13;22.40;99.90
1702;DHT22;848;48.354;10.064;2022-09-03T11:41:44;22.50;99.90
1702;DHT22;848;48.354;10.064;2022-09-03T11:44:22;22.50;99.90
1702;DHT22;848;48.354;10.064;2022-09-03T11:46:54;22.40;99.90
1702;DHT22;848;48.354;10.064;2022-09-03T11:49:29;22.60;99.90
1702;DHT22;848;48.354;10.064;2022-09-03T11:52:00;22.60;99.90
1702;DHT22;848;48.354;10.064;2022-09-03T11:54:31;22.70;99.90
1702;DHT22;848;48.354;10.064;2022-09-03T11:57:08;22.60;99.90
1702;DHT22;848;48.354;10.064;2022-09-03T11:59:38;22.50;99.90
1702;DHT22;848;48.354;10.064;2022-09-03T12:02:23;22.50;99.90
1702;DHT22;848;48.354;10.064;2022-09-03T12:05:02;22.50;99.90
1702;DHT22;848;48.354;10.064;2022-09-03T12:07:55;22.40;99.90
1702;DHT22;848;48.354;10.064;2022-09-03T12:10:34;22.20;99.90
1702;DHT22;848;48.354;10.064;2022-09-03T12:13:28;22.00;99.90
1702;DHT22;848;48.354;10.064;2022-09-03T12:19:06;21.40;99.90
1702;DHT22;848;48.354;10.064;2022-09-03T12:21:37;20.60;99.90
1702;DHT22;848;48.354;10.064;2022-09-03T12:24:10;19.90;99.90
1702;DHT22;848;48.354;10.064;2022-09-03T12:26:39;19.40;99.90
1702;DHT22;848;48.354;10.064;2022-09-03T12:29:20;19.20;99.90
1702;DHT22;848;48.354;10.064;2022-09-03T12:31:48;19.10;99.90
1702;DHT22;848;48.354;10.064;2022-09-03T12:34:17;19.20;99.90
1702;DHT22;848;48.354;10.064;2022-09-03T12:36:47;19.30;99.90
1702;DHT22;848;48.354;10.064;2022-09-03T12:39:18;19.50;99.90
1702;DHT22;848;48.354;10.064;2022-09-03T12:41:59;19.60;99.90
1702;DHT22;848;48.354;10.064;2022-09-03T12:44:29;19.70;99.90
1702;DHT22;848;48.354;10.064;2022-09-03T12:47:02;20.00;99.90
1702;DHT22;848;48.354;10.064;2022-09-03T12:49:37;20.10;99.90
1702;DHT22;848;48.354;10.064;2022-09-03T12:52:12;20.20;99.90
1702;DHT22;848;48.354;10.064;2022-09-03T12:54:50;20.20;99.90
1702;DHT22;848;48.354;10.064;2022-09-03T12:57:22;20.30;99.90
1702;DHT22;848;48.354;10.064;2022-09-03T12:59:53;20.30;99.90
1702;DHT22;848;48.354;10.064;2022-09-03T13:02:25;20.40;99.90
1702;DHT22;848;48.354;10.064;2022-09-03T13:04:54;20.50;99.90
1702;DHT22;848;48.354;10.064;2022-09-03T13:07:25;20.50;99.90
1702;DHT22;848;48.354;10.064;2022-09-03T13:10:00;20.50;99.90
1702;DHT22;848;48.354;10.064;2022-09-03T13:12:32;20.50;99.90
1702;DHT22;848;48.354;10.064;2022-09-03T13:15:06;20.40;99.90
1702;DHT22;848;48.354;10.064;2022-09-03T13:17:57;20.50;99.90
1702;DHT22;848;48.354;10.064;2022-09-03T13:20:33;20.50;99.90
1702;DHT22;848;48.354;10.064;2022-09-03T13:23:27;20.50;99.90
1702;DHT22;848;48.354;10.064;2022-09-03T13:26:06;20.40;99.90
1702;DHT22;848;48.354;10.064;2022-09-03T13:28:56;20.30;99.90
1702;DHT22;848;48.354;10.064;2022-09-03T13:31:31;20.30;99.90
1702;DHT22;848;48.354;10.064;2022-09-03T13:34:03;20.40;99.90
1702;DHT22;848;48.354;10.064;2022-09-03T13:36:36;20.40;99.90
1702;DHT22;848;48.354;10.064;2022-09-03T13:39:18;20.50;99.90
1702;DHT22;848;48.354;10.064;2022-09-03T13:41:51;20.60;99.90
1702;DHT22;848;48.354;10.064;2022-09-03T13:44:32;20.60;99.90
1702;DHT22;848;48.354;10.064;2022-09-03T13:47:07;20.50;99.90
1702;DHT22;848;48.354;10.064;2022-09-03T13:49:39;20.50;99.90
1702;DHT22;848;48.354;10.064;2022-09-03T13:52:25;20.60;99.90
1702;DHT22;848;48.354;10.064;2022-09-03T13:55:00;20.40;99.90
1702;DHT22;848;48.354;10.064;2022-09-03T13:57:33;20.30;99.90
1702;DHT22;848;48.354;10.064;2022-09-03T14:00:05;20.00;99.90
1702;DHT22;848;48.354;10.064;2022-09-03T14:02:44;19.90;99.90
1702;DHT22;848;48.354;10.064;2022-09-03T14:05:18;19.70;99.90
1702;DHT22;848;48.354;10.064;2022-09-03T14:08:03;19.60;99.90
1702;DHT22;848;48.354;10.064;2022-09-03T14:10:44;19.50;99.90
1702;DHT22;848;48.354;10.064;2022-09-03T14:13:27;19.50;99.90
1702;DHT22;848;48.354;10.064;2022-09-03T14:15:59;19.30;99.90
1702;DHT22;848;48.354;10.064;2022-09-03T14:18:38;19.20;99.90
1702;DHT22;848;48.354;10.064;2022-09-03T14:21:12;19.20;99.90
1702;DHT22;848;48.354;10.064;2022-09-03T14:23:45;19.40;99.90
1702;DHT22;848;48.354;10.064;2022-09-03T14:26:18;19.60;99.90
1702;DHT22;848;48.354;10.064;2022-09-03T14:28:57;19.70;99.90
1702;DHT22;848;48.354;10.064;2022-09-03T14:31:32;19.80;99.90
1702;DHT22;848;48.354;10.064;2022-09-03T14:34:07;19.90;99.90
1702;DHT22;848;48.354;10.064;2022-09-03T14:36:41;20.00;99.90
1702;DHT22;848;48.354;10.064;2022-09-03T14:39:32;20.00;99.90
1702;DHT22;848;48.354;10.064;2022-09-03T14:42:20;19.90;99.90
1702;DHT22;848;48.354;10.064;2022-09-03T14:45:13;19.80;99.90
1702;DHT22;848;48.354;10.064;2022-09-03T14:48:05;19.70;99.90
1702;DHT22;848;48.354;10.064;2022-09-03T14:50:47;19.80;99.90
1702;DHT22;848;48.354;10.064;2022-09-03T14:53:39;19.80;99.90
1702;DHT22;848;48.354;10.064;2022-09-03T14:56:20;19.90;99.90
1702;DHT22;848;48.354;10.064;2022-09-03T14:59:00;20.00;99.90
1702;DHT22;848;48.354;10.064;2022-09-03T15:01:34;20.00;99.90
1702;DHT22;848;48.354;10.064;2022-09-03T15:07:23;19.90;99.90
1702;DHT22;848;48.354;10.064;2022-09-03T15:10:03;20.00;99.90
1702;DHT22;848;48.354;10.064;2022-09-03T15:12:36;20.00;99.90
1702;DHT22;848;48.354;10.064;2022-09-03T15:15:09;20.00;99.90
1702;DHT22;848;48.354;10.064;2022-09-03T15:18:01;19.90;99.90
1702;DHT22;848;48.354;10.064;2022-09-03T15:20:39;19.90;99.90
1702;DHT22;848;48.354;10.064;2022-09-03T15:23:23;20.00;99.90
1702;DHT22;848;48.354;10.064;2022-09-03T15:29:02;19.90;99.90
1702;DHT22;848;48.354;10.064;2022-09-03T15:31:42;19.90;99.90
1702;DHT22;848;48.354;10.064;2022-09-03T15:34:22;19.90;99.90
1702;DHT22;848;48.354;10.064;2022-09-03T15:36:54;20.00;99.90
1702;DHT22;848;48.354;10.064;2022-09-03T15:39:25;20.00;99.90
1702;DHT22;848;48.354;10.064;2022-09-03T15:41:58;20.00;99.90
1702;DHT22;848;48.354;10.064;2022-09-03T15:44:33;20.00;99.90
1702;DHT22;848;48.354;10.064;2022-09-03T15:47:05;20.00;99.90
1702;DHT22;848;48.354;10.064;2022-09-03T15:49:46;20.00;99.90
1702;DHT22;848;48.354;10.064;2022-09-03T15:52:37;20.00;99.90
1702;DHT22;848;48.354;10.064;2022-09-03T15:55:10;20.00;99.90
1702;DHT22;848;48.354;10.064;2022-09-03T15:57:44;20.00;99.90
1702;DHT22;848;48.354;10.064;2022-09-03T16:00:17;20.00;99.90
1702;DHT22;848;48.354;10.064;2022-09-03T16:02:58;20.00;99.90
1702;DHT22;848;48.354;10.064;2022-09-03T16:05:40;20.10;99.90
1702;DHT22;848;48.354;10.064;2022-09-03T16:08:16;20.00;99.90
1702;DHT22;848;48.354;10.064;2022-09-03T16:10:54;20.00;99.90
1702;DHT22;848;48.354;10.064;2022-09-03T16:13:46;20.00;99.90
1702;DHT22;848;48.354;10.064;2022-09-03T16:16:20;20.10;99.90
1702;DHT22;848;48.354;10.064;2022-09-03T16:18:57;20.00;99.90
1702;DHT22;848;48.354;10.064;2022-09-03T16:21:35;19.90;99.90
1702;DHT22;848;48.354;10.064;2022-09-03T16:24:11;20.00;99.90
1702;DHT22;848;48.354;10.064;2022-09-03T16:26:48;20.00;99.90
1702;DHT22;848;48.354;10.064;2022-09-03T16:29:17;19.90;99.90
1702;DHT22;848;48.354;10.064;2022-09-03T16:32:02;19.90;99.90
1702;DHT22;848;48.354;10.064;2022-09-03T16:34:38;19.80;99.90
1702;DHT22;848;48.354;10.064;2022-09-03T16:37:19;19.80;99.90
1702;DHT22;848;48.354;10.064;2022-09-03T16:39:54;19.80;99.90
1702;DHT22;848;48.354;10.064;2022-09-03T16:42:30;19.70;99.90
1702;DHT22;848;48.354;10.064;2022-09-03T16:45:11;19.80;99.90
1702;DHT22;848;48.354;10.064;2022-09-03T16:47:50;19.80;99.90
1702;DHT22;848;48.354;10.064;2022-09-03T16:50:29;19.70;99.90
1702;DHT22;848;48.354;10.064;2022-09-03T16:53:07;19.70;99.90
1702;DHT22;848;48.354;10.064;2022-09-03T16:55:52;19.70;99.90